createdAt,value
2022-12-01T00:01:00.261Z,76
2022-12-01T00:02:17.409Z,76.1
2022-12-01T00:03:34.224Z,76.3
2022-12-01T00:04:51.219Z,76.4
2022-12-01T00:06:08.267Z,76.2
2022-12-01T00:07:25.471Z,75.6
2022-12-01T00:08:42.312Z,75
2022-12-01T00:09:59.229Z,74.8
2022-12-01T00:11:16.365Z,74.6
2022-12-01T00:12:33.264Z,73.8
2022-12-01T00:13:50.262Z,73.6
2022-12-01T00:15:07.418Z,74.3
2022-12-01T00:16:24.315Z,75
2022-12-01T00:17:41.409Z,75.3
2022-12-01T00:18:58.230Z,75.5
2022-12-01T00:20:15.229Z,75.6
2022-12-01T00:21:32.253Z,75.7
2022-12-01T00:22:49.274Z,76.1
2022-12-01T00:24:06.232Z,76.1
2022-12-01T00:25:23.223Z,76.2
2022-12-01T00:26:40.381Z,75.8
2022-12-01T00:27:57.291Z,75.6
2022-12-01T00:29:14.266Z,75.6
2022-12-01T00:30:31.290Z,75.7
2022-12-01T00:31:48.374Z,75.9
2022-12-01T00:33:05.242Z,75.9
2022-12-01T00:34:22.335Z,75.8
2022-12-01T00:35:39.299Z,75.7
2022-12-01T00:36:56.308Z,75.7
2022-12-01T00:38:13.298Z,75.6
2022-12-01T00:39:30.296Z,75.6
2022-12-01T00:40:47.603Z,75.5
2022-12-01T00:42:05.472Z,75.2
2022-12-01T00:43:21.285Z,74.8
2022-12-01T00:44:38.274Z,74.9
2022-12-01T00:45:55.418Z,74.8
2022-12-01T00:47:13.313Z,75.1
2022-12-01T00:48:30.286Z,75.4
2022-12-01T00:49:47.548Z,75.5
2022-12-01T00:51:04.314Z,75.4
2022-12-01T00:52:21.304Z,75.6
2022-12-01T00:53:38.300Z,75.9
2022-12-01T00:54:55.294Z,76.3
2022-12-01T00:56:12.297Z,76.7
2022-12-01T00:57:29.313Z,76.8
2022-12-01T00:58:46.424Z,76.9
2022-12-01T01:00:03.491Z,76.6
2022-12-01T01:01:20.380Z,76.4
2022-12-01T01:02:37.356Z,76.2
2022-12-01T01:03:54.347Z,76
2022-12-01T01:05:11.400Z,75.5
2022-12-01T01:06:28.290Z,75.5
2022-12-01T01:07:45.403Z,75.7
2022-12-01T01:09:02.488Z,75.7
2022-12-01T01:10:19.328Z,75.7
2022-12-01T01:11:36.332Z,75.9
2022-12-01T01:12:53.329Z,76.6
2022-12-01T01:14:10.311Z,77.2
2022-12-01T01:15:27.372Z,77.1
2022-12-01T01:16:44.315Z,76.9
2022-12-01T01:18:01.552Z,76.4
2022-12-01T01:19:18.328Z,76.1
2022-12-01T01:20:35.585Z,76
2022-12-01T01:21:52.308Z,75.8
2022-12-01T01:23:09.293Z,75.6
2022-12-01T01:24:26.353Z,75.7
2022-12-01T01:25:43.324Z,75.6
2022-12-01T01:27:00.393Z,74.7
2022-12-01T01:28:17.434Z,73.9
2022-12-01T01:29:34.383Z,73.5
2022-12-01T01:30:51.502Z,72.9
2022-12-01T01:32:08.380Z,72.3
2022-12-01T01:33:25.348Z,71.9
2022-12-01T01:34:42.675Z,72
2022-12-01T01:35:59.448Z,71.6
2022-12-01T01:37:16.391Z,71.7
2022-12-01T01:38:33.490Z,71.8
2022-12-01T01:39:50.606Z,72
2022-12-01T01:41:07.318Z,71.9
2022-12-01T01:42:24.379Z,71.8
2022-12-01T01:43:41.354Z,71.5
2022-12-01T01:44:58.341Z,71.4
2022-12-01T01:46:15.396Z,71.6
2022-12-01T01:47:32.378Z,71.6
2022-12-01T01:48:49.422Z,71.5
2022-12-01T01:50:06.377Z,71.7
2022-12-01T01:51:23.771Z,71.5
2022-12-01T01:52:40.446Z,71.3
2022-12-01T01:53:57.408Z,71.2
2022-12-01T01:55:14.373Z,71.5
2022-12-01T01:56:31.426Z,72
2022-12-01T01:57:48.405Z,72.4
2022-12-01T01:59:05.380Z,72.4
2022-12-01T02:00:22.464Z,72.5
2022-12-01T02:01:39.625Z,72.6
2022-12-01T02:02:56.421Z,72.3
2022-12-01T02:04:13.362Z,72
2022-12-01T02:05:30.993Z,71.7
2022-12-01T02:06:48.354Z,71.5
2022-12-01T02:08:05.483Z,71.3
2022-12-01T02:09:22.424Z,70.8
2022-12-01T02:10:39.503Z,70.5
2022-12-01T02:11:56.393Z,70.3
2022-12-01T02:13:13.416Z,69.9
2022-12-01T02:14:30.414Z,69.5
2022-12-01T02:15:47.396Z,69.2
2022-12-01T02:17:04.499Z,68.7
2022-12-01T02:18:21.370Z,68.3
2022-12-01T02:19:38.420Z,67.9
2022-12-01T02:20:55.416Z,67.9
2022-12-01T02:22:12.447Z,67.6
2022-12-01T02:23:29.407Z,67.5
2022-12-01T02:24:46.442Z,67.9
2022-12-01T02:26:03.510Z,68.3
2022-12-01T02:27:20.409Z,68
2022-12-01T02:28:37.433Z,68
2022-12-01T02:29:54.503Z,68.1
2022-12-01T02:31:14.792Z,68.2
2022-12-01T02:32:28.407Z,68.4
2022-12-01T02:33:45.528Z,68.4
2022-12-01T02:35:02.489Z,68.3
2022-12-01T02:36:19.488Z,68
2022-12-01T02:37:36.569Z,67.7
2022-12-01T02:38:53.446Z,67.7
2022-12-01T02:40:10.380Z,67.7
2022-12-01T02:41:27.429Z,68
2022-12-01T02:42:44.444Z,68.5
2022-12-01T02:44:01.402Z,69.1
2022-12-01T02:45:18.482Z,69.9
2022-12-01T02:46:35.555Z,70.6
2022-12-01T02:47:52.455Z,71
2022-12-01T02:49:09.419Z,71.5
2022-12-01T02:50:26.427Z,71.9
2022-12-01T02:51:43.481Z,72.1
2022-12-01T02:53:00.439Z,71.7
2022-12-01T02:54:17.417Z,71.2
2022-12-01T02:55:34.442Z,71.1
2022-12-01T02:56:51.446Z,71
2022-12-01T02:58:08.439Z,70.5
2022-12-01T02:59:25.437Z,70.3
2022-12-01T03:00:42.572Z,70.4
2022-12-01T03:01:59.512Z,69.9
2022-12-01T03:03:16.431Z,70
2022-12-01T03:04:33.433Z,69.7
2022-12-01T03:05:51.017Z,69.7
2022-12-01T03:07:08.489Z,69.5
2022-12-01T03:08:25.470Z,69.4
2022-12-01T03:09:42.452Z,69.2
2022-12-01T03:10:59.475Z,69
2022-12-01T03:12:16.452Z,68.8
2022-12-01T03:13:33.479Z,68.8
2022-12-01T03:14:50.489Z,68.4
2022-12-01T03:16:07.604Z,68
2022-12-01T03:17:24.506Z,67.5
2022-12-01T03:18:41.479Z,67.2
2022-12-01T03:19:58.478Z,66.7
2022-12-01T03:21:16.523Z,66.3
2022-12-01T03:22:33.472Z,66
2022-12-01T03:23:50.486Z,66
2022-12-01T03:25:07.512Z,66
2022-12-01T03:26:24.553Z,66
2022-12-01T03:27:41.764Z,65.8
2022-12-01T03:28:58.479Z,65.8
2022-12-01T03:30:15.602Z,65.8
2022-12-01T03:31:32.624Z,65.7
2022-12-01T03:32:49.472Z,65.4
2022-12-01T03:34:06.492Z,65.2
2022-12-01T03:35:23.497Z,65.3
2022-12-01T03:36:40.500Z,65.2
2022-12-01T03:37:57.472Z,65.4
2022-12-01T03:39:14.557Z,65.2
2022-12-01T03:40:31.496Z,64.9
2022-12-01T03:41:48.562Z,65.1
2022-12-01T03:43:05.542Z,65.1
2022-12-01T03:44:22.470Z,65.1
2022-12-01T03:45:39.520Z,65.1
2022-12-01T03:46:56.608Z,65.1
2022-12-01T03:48:13.496Z,65.4
2022-12-01T03:49:30.504Z,65.5
2022-12-01T03:50:47.484Z,65.7
2022-12-01T03:52:04.534Z,66.6
2022-12-01T03:53:21.506Z,67.3
2022-12-01T03:54:38.558Z,68
2022-12-01T03:55:55.561Z,68.7
2022-12-01T03:57:12.505Z,69.2
2022-12-01T03:58:29.515Z,69.8
2022-12-01T03:59:46.859Z,70.1
2022-12-01T04:01:03.514Z,70.1
2022-12-01T04:02:20.655Z,69.8
2022-12-01T04:03:37.514Z,69.6
2022-12-01T04:04:54.516Z,69.3
2022-12-01T04:06:11.534Z,68.4
2022-12-01T04:07:28.615Z,68.1
2022-12-01T04:08:45.536Z,67.5
2022-12-01T04:10:02.665Z,67.3
2022-12-01T04:11:19.558Z,67.2
2022-12-01T04:12:36.618Z,67
2022-12-01T04:13:53.525Z,67.2
2022-12-01T04:15:10.518Z,67.1
2022-12-01T04:16:27.633Z,66.9
2022-12-01T04:17:44.615Z,66.7
2022-12-01T04:19:01.738Z,66.5
2022-12-01T04:20:18.542Z,66.4
2022-12-01T04:21:35.562Z,66.4
2022-12-01T04:22:52.583Z,66.5
2022-12-01T04:24:09.569Z,66.8
2022-12-01T04:25:26.560Z,66.9
2022-12-01T04:26:43.582Z,66.7
2022-12-01T04:28:00.586Z,66.6
2022-12-01T04:29:17.537Z,66.5
2022-12-01T04:30:34.628Z,66.4
2022-12-01T04:31:51.623Z,66.5
2022-12-01T04:33:08.662Z,66.6
2022-12-01T04:34:25.558Z,66.5
2022-12-01T04:35:42.567Z,66.6
2022-12-01T04:36:59.585Z,66.7
2022-12-01T04:38:16.593Z,66.5
2022-12-01T04:39:33.557Z,66.6
2022-12-01T04:40:50.588Z,66.7
2022-12-01T04:42:07.638Z,66.8
2022-12-01T04:43:24.706Z,66.9
2022-12-01T04:44:41.553Z,67.2
2022-12-01T04:45:58.566Z,67
2022-12-01T04:47:15.568Z,66.8
2022-12-01T04:48:32.641Z,66.6
2022-12-01T04:49:49.901Z,66.8
2022-12-01T04:51:06.602Z,66.7
2022-12-01T04:52:23.769Z,67
2022-12-01T04:53:40.703Z,67.5
2022-12-01T04:54:58.298Z,68.3
2022-12-01T04:56:15.593Z,69.1
2022-12-01T04:57:32.590Z,69.4
2022-12-01T04:58:49.619Z,70.1
2022-12-01T05:00:06.711Z,70.4
2022-12-01T05:01:23.675Z,70.4
2022-12-01T05:02:40.641Z,70.3
2022-12-01T05:03:57.660Z,70
2022-12-01T05:05:14.601Z,69.6
2022-12-01T05:06:31.629Z,69.2
2022-12-01T05:07:48.707Z,68.9
2022-12-01T05:09:05.645Z,68.3
2022-12-01T05:10:22.588Z,68.3
2022-12-01T05:11:39.629Z,68.2
2022-12-01T05:12:56.628Z,68
2022-12-01T05:14:13.604Z,67.6
2022-12-01T05:15:30.692Z,67.5
2022-12-01T05:16:47.676Z,67.3
2022-12-01T05:18:04.649Z,67.2
2022-12-01T05:19:21.653Z,67.4
2022-12-01T05:20:38.674Z,67
2022-12-01T05:21:55.610Z,66.8
2022-12-01T05:23:16.679Z,66.7
2022-12-01T05:24:29.640Z,66.6
2022-12-01T05:25:46.652Z,66.4
2022-12-01T05:27:03.649Z,66.5
2022-12-01T05:28:20.611Z,66.7
2022-12-01T05:29:37.718Z,66.4
2022-12-01T05:30:54.642Z,66.2
2022-12-01T05:32:11.663Z,66.2
2022-12-01T05:33:28.722Z,66.8
2022-12-01T05:34:45.776Z,67.3
2022-12-01T05:36:02.776Z,67.7
2022-12-01T05:37:19.663Z,68.5
2022-12-01T05:38:36.639Z,69.1
2022-12-01T05:39:53.659Z,69.6
2022-12-01T05:41:10.635Z,69.7
2022-12-01T05:42:27.638Z,69.3
2022-12-01T05:43:44.629Z,69
2022-12-01T05:45:01.877Z,68.3
2022-12-01T05:46:18.768Z,68
2022-12-01T05:47:35.635Z,67.6
2022-12-01T05:48:52.648Z,67.3
2022-12-01T05:50:09.769Z,67.1
2022-12-01T05:51:26.674Z,66.9
2022-12-01T05:52:43.674Z,66.5
2022-12-01T05:54:00.650Z,66.4
2022-12-01T05:55:17.682Z,66.4
2022-12-01T05:56:34.649Z,65.9
2022-12-01T05:57:52.237Z,65.7
2022-12-01T06:03:17.692Z,65.9
2022-12-01T06:04:35.039Z,66
2022-12-01T06:05:51.718Z,66.2
2022-12-01T06:07:08.689Z,66.3
2022-12-01T06:08:25.704Z,66.5
2022-12-01T06:09:42.736Z,66.4
2022-12-01T06:10:59.671Z,66.4
2022-12-01T06:12:16.685Z,66.2
2022-12-01T06:13:33.685Z,66.3
2022-12-01T06:14:50.734Z,66.7
2022-12-01T06:16:07.878Z,67.3
2022-12-01T06:17:24.757Z,68.1
2022-12-01T06:18:41.729Z,68.6
2022-12-01T06:19:58.707Z,69.5
2022-12-01T06:21:15.702Z,69.7
2022-12-01T06:22:32.686Z,69.6
2022-12-01T06:23:49.721Z,69.1
2022-12-01T06:25:06.969Z,68.8
2022-12-01T06:26:23.709Z,68.8
2022-12-01T06:27:40.689Z,68.3
2022-12-01T06:28:58.347Z,68
2022-12-01T06:30:15.827Z,67.7
2022-12-01T06:31:32.763Z,67.3
2022-12-01T06:32:49.732Z,67
2022-12-01T06:34:06.709Z,66.8
2022-12-01T06:35:23.750Z,66.7
2022-12-01T06:36:40.741Z,66.5
2022-12-01T06:37:57.695Z,66.4
2022-12-01T06:39:14.702Z,66.2
2022-12-01T06:40:31.762Z,66.1
2022-12-01T06:41:48.789Z,66.1
2022-12-01T06:43:05.734Z,66.2
2022-12-01T06:44:22.763Z,66.5
2022-12-01T06:45:42.704Z,66.6
2022-12-01T06:46:59.739Z,66.4
2022-12-01T06:48:16.720Z,66
2022-12-01T06:49:33.746Z,65.8
2022-12-01T06:50:50.735Z,65.7
2022-12-01T06:52:07.767Z,65.5
2022-12-01T06:53:24.734Z,65.4
2022-12-01T06:54:41.779Z,65.6
2022-12-01T06:55:58.752Z,65.4
2022-12-01T06:57:15.807Z,65.5
2022-12-01T06:58:32.742Z,65.5
2022-12-01T06:59:49.933Z,65.4
2022-12-01T07:01:06.784Z,65.6
2022-12-01T07:02:24.385Z,66.1
2022-12-01T07:03:40.767Z,66.7
2022-12-01T07:04:58.171Z,67.5
2022-12-01T07:06:14.787Z,68.1
2022-12-01T07:07:31.835Z,68.8
2022-12-01T07:08:48.943Z,69.1
2022-12-01T07:10:05.864Z,69.4
2022-12-01T07:11:22.759Z,69.2
2022-12-01T07:12:39.836Z,68.8
2022-12-01T07:13:56.795Z,68.4
2022-12-01T07:15:13.785Z,68.1
2022-12-01T07:16:31.171Z,67.5
2022-12-01T07:17:47.768Z,67.4
2022-12-01T07:19:04.760Z,67
2022-12-01T07:20:21.801Z,66.8
2022-12-01T07:21:38.834Z,66.7
2022-12-01T07:22:55.831Z,66.6
2022-12-01T07:24:12.802Z,66.8
2022-12-01T07:25:29.915Z,67.1
2022-12-01T07:26:46.850Z,67.1
2022-12-01T07:28:03.797Z,67
2022-12-01T07:29:20.769Z,67
2022-12-01T07:30:37.840Z,67
2022-12-01T07:31:54.811Z,66.8
2022-12-01T07:33:11.874Z,66.5
2022-12-01T07:34:28.843Z,66.3
2022-12-01T07:35:46.376Z,66.4
2022-12-01T07:37:03.867Z,66.3
2022-12-01T07:38:22.339Z,66.3
2022-12-01T07:39:37.800Z,66.3
2022-12-01T07:40:54.801Z,66.3
2022-12-01T07:42:11.893Z,65.9
2022-12-01T07:43:28.804Z,65.8
2022-12-01T07:44:45.806Z,65.6
2022-12-01T07:46:02.926Z,65.6
2022-12-01T07:47:19.853Z,65.6
2022-12-01T07:48:36.812Z,65.6
2022-12-01T07:49:53.799Z,65.4
2022-12-01T07:51:10.785Z,65.3
2022-12-01T07:52:27.848Z,65.2
2022-12-01T07:53:44.854Z,65.2
2022-12-01T07:55:01.816Z,65.2
2022-12-01T07:56:18.857Z,65.4
2022-12-01T07:57:35.826Z,65.3
2022-12-01T07:58:53.080Z,65.2
2022-12-01T08:00:09.903Z,65.2
2022-12-01T08:01:27.096Z,65.8
2022-12-01T08:02:43.888Z,66.4
2022-12-01T08:04:00.866Z,67.2
2022-12-01T08:05:17.826Z,67.6
2022-12-01T08:06:34.865Z,67.9
2022-12-01T08:07:51.886Z,68
2022-12-01T08:09:08.848Z,67.7
2022-12-01T08:10:25.895Z,67.5
2022-12-01T08:11:42.903Z,67.1
2022-12-01T08:12:59.820Z,66.9
2022-12-01T08:14:16.867Z,66.5
2022-12-01T08:15:33.874Z,66
2022-12-01T08:16:51.075Z,65.7
2022-12-01T08:18:07.829Z,65.2
2022-12-01T08:19:24.847Z,65.1
2022-12-01T08:20:41.902Z,65
2022-12-01T08:21:58.860Z,64.6
2022-12-01T08:23:15.846Z,64.2
2022-12-01T08:24:32.879Z,64
2022-12-01T08:25:49.852Z,63.9
2022-12-01T08:27:06.879Z,63.8
2022-12-01T08:28:23.861Z,63.9
2022-12-01T08:29:40.858Z,63.9
2022-12-01T08:30:57.963Z,63.9
2022-12-01T08:32:14.853Z,63.9
2022-12-01T08:33:31.886Z,63.6
2022-12-01T08:34:53.251Z,63.4
2022-12-01T08:36:05.914Z,63.5
2022-12-01T08:37:23.113Z,63.8
2022-12-01T08:38:39.860Z,64.3
2022-12-01T08:39:57.015Z,64.6
2022-12-01T08:41:13.892Z,64.8
2022-12-01T08:42:30.892Z,64.8
2022-12-01T08:44:03.229Z,64.7
2022-12-01T08:45:04.966Z,64.7
2022-12-01T08:46:22.037Z,64.2
2022-12-01T08:47:39.078Z,64
2022-12-01T08:48:55.901Z,64.1
2022-12-01T08:50:12.878Z,64.1
2022-12-01T08:51:29.877Z,64.1
2022-12-01T08:52:46.943Z,64
2022-12-01T08:54:03.922Z,63.9
2022-12-01T08:55:20.966Z,63.9
2022-12-01T08:56:37.958Z,64
2022-12-01T08:57:54.974Z,64.7
2022-12-01T08:59:11.899Z,65.3
2022-12-01T09:00:28.942Z,66.2
2022-12-01T09:01:46.017Z,66.7
2022-12-01T09:03:03.489Z,66.7
2022-12-01T09:04:19.887Z,66.5
2022-12-01T09:05:36.914Z,66.3
2022-12-01T09:06:53.917Z,65.9
2022-12-01T09:08:10.969Z,65.6
2022-12-01T09:09:27.898Z,65.2
2022-12-01T09:10:44.987Z,65
2022-12-01T09:12:01.925Z,64.7
2022-12-01T09:13:18.908Z,64.4
2022-12-01T09:14:35.938Z,64.2
2022-12-01T09:15:52.986Z,64.1
2022-12-01T09:17:09.968Z,63.8
2022-12-01T09:18:26.923Z,64.1
2022-12-01T09:19:43.976Z,64.7
2022-12-01T09:21:01.020Z,64.7
2022-12-01T09:22:17.944Z,64.6
2022-12-01T09:23:35.250Z,64.5
2022-12-01T09:24:51.913Z,64.2
2022-12-01T09:26:13.333Z,63.9
2022-12-01T09:27:25.995Z,64
2022-12-01T09:28:42.984Z,64.2
2022-12-01T09:29:59.998Z,64.3
2022-12-01T09:31:17.071Z,64.6
2022-12-01T09:32:33.935Z,64.8
2022-12-01T09:33:50.952Z,64.8
2022-12-01T09:35:08.157Z,64.9
2022-12-01T09:36:25.077Z,64.8
2022-12-01T09:37:41.961Z,65
2022-12-01T09:38:58.947Z,64.9
2022-12-01T09:40:16.106Z,64.9
2022-12-01T09:41:32.994Z,64.7
2022-12-01T09:42:50.078Z,64.5
2022-12-01T09:44:06.970Z,64.3
2022-12-01T09:45:24.009Z,64.3
2022-12-01T09:46:41.105Z,64.2
2022-12-01T09:47:57.997Z,64.5
2022-12-01T09:49:14.983Z,65.2
2022-12-01T09:50:31.976Z,65.9
2022-12-01T09:51:49.004Z,66.4
2022-12-01T09:53:06.016Z,67.1
2022-12-01T09:54:23.009Z,67.6
2022-12-01T09:55:39.964Z,68.1
2022-12-01T09:56:57.039Z,68.6
2022-12-01T09:58:14.036Z,68.2
2022-12-01T09:59:31.017Z,67.8
2022-12-01T10:00:48.129Z,67.6
2022-12-01T10:02:05.058Z,67.4
2022-12-01T10:03:22.270Z,67.2
2022-12-01T10:04:39.012Z,67.3
2022-12-01T10:06:25.571Z,67.2
2022-12-01T10:07:13.112Z,67.2
2022-12-01T10:08:29.973Z,67.3
2022-12-01T10:09:47.208Z,67.3
2022-12-01T10:11:04.196Z,67.4
2022-12-01T10:12:21.106Z,67.3
2022-12-01T10:13:37.989Z,67.5
2022-12-01T10:14:55.051Z,67.7
2022-12-01T10:16:12.547Z,67.7
2022-12-01T10:17:29.011Z,67.6
2022-12-01T10:18:46.211Z,67.7
2022-12-01T10:20:03.302Z,68.1
2022-12-01T10:21:20.295Z,67.8
2022-12-01T10:22:36.993Z,67.6
2022-12-01T10:23:54.034Z,67.3
2022-12-01T10:25:11.004Z,67.2
2022-12-01T10:26:28.064Z,67.2
2022-12-01T10:27:45.075Z,67.2
2022-12-01T10:29:02.005Z,67.3
2022-12-01T10:30:19.113Z,67.6
2022-12-01T10:31:36.279Z,67.1
2022-12-01T10:32:53.251Z,67
2022-12-01T10:34:10.045Z,67.2
2022-12-01T10:35:27.044Z,67.7
2022-12-01T10:36:44.257Z,68.3
2022-12-01T10:38:01.189Z,68.7
2022-12-01T10:39:18.064Z,69.1
2022-12-01T10:40:35.095Z,69.1
2022-12-01T10:41:52.029Z,68.7
2022-12-01T10:43:09.067Z,68.2
2022-12-01T10:44:26.021Z,68.2
2022-12-01T10:45:43.143Z,68
2022-12-01T10:47:00.107Z,68.1
2022-12-01T10:48:17.070Z,68.5
2022-12-01T10:49:34.033Z,68.5
2022-12-01T10:50:51.053Z,68.7
2022-12-01T10:52:08.074Z,68.6
2022-12-01T10:53:25.077Z,68.5
2022-12-01T10:54:42.017Z,68.1
2022-12-01T10:55:59.095Z,68.4
2022-12-01T10:57:16.106Z,69
2022-12-01T10:58:33.126Z,69.5
2022-12-01T10:59:50.758Z,69.3
2022-12-01T11:01:07.399Z,68.9
2022-12-01T11:02:24.748Z,68.3
2022-12-01T11:03:41.157Z,67.3
2022-12-01T11:04:58.100Z,66.4
2022-12-01T11:06:15.075Z,65.9
2022-12-01T11:07:32.151Z,66
2022-12-01T11:08:49.121Z,65.4
2022-12-01T11:10:06.146Z,65.1
2022-12-01T11:11:23.269Z,65.6
2022-12-01T11:12:40.122Z,66.5
2022-12-01T11:13:57.098Z,66.7
2022-12-01T11:15:14.182Z,67
2022-12-01T11:16:31.278Z,67.2
2022-12-01T11:17:48.150Z,67.6
2022-12-01T11:19:05.134Z,67.4
2022-12-01T11:20:22.202Z,67.2
2022-12-01T11:21:39.075Z,67.2
2022-12-01T11:22:56.111Z,66.8
2022-12-01T11:24:13.455Z,66.9
2022-12-01T11:25:30.260Z,67
2022-12-01T11:26:47.556Z,66.9
2022-12-01T11:28:04.934Z,66.3
2022-12-01T11:29:22.147Z,66.3
2022-12-01T11:30:39.286Z,66.1
2022-12-01T11:31:56.156Z,65.8
2022-12-01T11:33:13.251Z,65.2
2022-12-01T11:34:30.118Z,65.2
2022-12-01T11:35:47.355Z,65.4
2022-12-01T11:37:04.129Z,65.7
2022-12-01T11:38:29.817Z,66
2022-12-01T11:39:38.152Z,66.4
2022-12-01T11:40:55.173Z,67.2
2022-12-01T11:42:12.093Z,67.4
2022-12-01T11:43:29.108Z,67.1
2022-12-01T11:44:53.512Z,66.8
2022-12-01T11:46:03.288Z,66.8
2022-12-01T11:47:24.505Z,67
2022-12-01T11:48:37.166Z,67.3
2022-12-01T11:49:54.188Z,67.7
2022-12-01T11:51:11.388Z,67.7
2022-12-01T11:52:28.127Z,67.4
2022-12-01T11:53:45.290Z,67.1
2022-12-01T11:55:05.724Z,67.1
2022-12-01T11:56:19.359Z,67.1
2022-12-01T11:57:36.223Z,67.6
2022-12-01T11:58:53.208Z,67.9
2022-12-01T12:00:10.290Z,67.7
2022-12-01T12:01:27.645Z,67.6
2022-12-01T12:02:44.500Z,67.7
2022-12-01T12:04:01.295Z,67.6
2022-12-01T12:05:18.358Z,67.8
2022-12-01T12:06:42.447Z,67.9
2022-12-01T12:07:52.234Z,67.7
2022-12-01T12:09:09.269Z,67.7
2022-12-01T12:10:26.185Z,67.8
2022-12-01T12:11:43.278Z,68.1
2022-12-01T12:13:00.504Z,68.5
2022-12-01T12:14:17.285Z,68.8
2022-12-01T12:15:34.370Z,69.1
2022-12-01T12:16:51.168Z,69.4
2022-12-01T12:18:08.354Z,69.6
2022-12-01T12:19:28.984Z,69.8
2022-12-01T12:20:43.318Z,70.2
2022-12-01T12:22:00.170Z,70.5
2022-12-01T12:23:17.505Z,70.6
2022-12-01T12:24:34.342Z,70.4
2022-12-01T12:25:51.345Z,70.4
2022-12-01T12:27:08.283Z,70.3
2022-12-01T12:28:25.297Z,70
2022-12-01T12:29:42.249Z,69.3
2022-12-01T12:30:59.309Z,68.3
2022-12-01T12:32:16.757Z,67.8
2022-12-01T12:33:34.443Z,67.6
2022-12-01T12:34:51.250Z,67.5
2022-12-01T12:36:08.213Z,67.9
2022-12-01T12:37:25.196Z,67.6
2022-12-01T12:38:42.226Z,67.7
2022-12-01T12:39:59.199Z,67.8
2022-12-01T12:41:16.220Z,67.9
2022-12-01T12:42:33.202Z,67.9
2022-12-01T12:43:50.310Z,67.8
2022-12-01T12:45:07.322Z,68.3
2022-12-01T12:46:24.243Z,68.3
2022-12-01T12:47:41.181Z,68.1
2022-12-01T12:49:27.074Z,68
2022-12-01T12:50:15.224Z,68.1
2022-12-01T12:51:32.304Z,67.9
2022-12-01T12:52:49.197Z,67.7
2022-12-01T12:54:06.299Z,67.8
2022-12-01T12:55:23.392Z,68.2
2022-12-01T12:56:40.235Z,69
2022-12-01T12:57:57.216Z,69.6
2022-12-01T12:59:14.267Z,70
2022-12-01T13:00:31.404Z,70
2022-12-01T13:01:48.309Z,69.5
2022-12-01T13:03:05.310Z,69.1
2022-12-01T13:04:22.378Z,68.3
2022-12-01T13:05:39.258Z,67.9
2022-12-01T13:06:56.222Z,67.6
2022-12-01T13:08:13.336Z,67.3
2022-12-01T13:09:30.209Z,67.1
2022-12-01T13:10:47.352Z,67
2022-12-01T13:12:04.936Z,66.9
2022-12-01T13:13:21.349Z,66.6
2022-12-01T13:14:38.251Z,66.3
2022-12-01T13:15:55.315Z,66
2022-12-01T13:17:12.416Z,65.7
2022-12-01T13:18:29.549Z,65.8
2022-12-01T13:19:46.517Z,66.2
2022-12-01T13:21:03.386Z,66.2
2022-12-01T13:22:20.304Z,66.4
2022-12-01T13:23:38.419Z,66.2
2022-12-01T13:24:55.254Z,65.6
2022-12-01T13:26:12.442Z,65.4
2022-12-01T13:27:29.440Z,65.3
2022-12-01T13:28:46.228Z,65.6
2022-12-01T13:30:04.425Z,65.9
2022-12-01T13:31:21.326Z,66
2022-12-01T13:32:38.492Z,66.2
2022-12-01T13:33:55.267Z,66.3
2022-12-01T13:35:12.406Z,66
2022-12-01T13:36:46.057Z,66.3
2022-12-01T13:37:46.651Z,67.5
2022-12-01T13:39:03.623Z,68.3
2022-12-01T13:40:20.386Z,68.9
2022-12-01T13:41:37.508Z,69.1
2022-12-01T13:42:54.747Z,69.1
2022-12-01T13:44:14.468Z,69.2
2022-12-01T13:45:28.347Z,68.8
2022-12-01T13:46:45.540Z,68.6
2022-12-01T13:48:02.285Z,68.4
2022-12-01T13:49:19.287Z,68.2
2022-12-01T13:50:36.315Z,68.7
2022-12-01T13:51:53.284Z,69.5
2022-12-01T13:53:10.476Z,70
2022-12-01T13:54:27.310Z,70.2
2022-12-01T13:55:44.487Z,70.3
2022-12-01T13:57:01.301Z,70.1
2022-12-01T13:58:18.274Z,69.9
2022-12-01T13:59:35.289Z,69.9
2022-12-01T14:00:52.495Z,69.7
2022-12-01T14:02:09.630Z,69.8
2022-12-01T14:03:26.434Z,69.8
2022-12-01T14:04:43.541Z,69.5
2022-12-01T14:06:00.332Z,69
2022-12-01T14:07:17.286Z,68.4
2022-12-01T14:08:34.392Z,68.5
2022-12-01T14:09:51.563Z,68.7
2022-12-01T14:11:08.293Z,69
2022-12-01T14:12:25.330Z,69.1
2022-12-01T14:13:42.384Z,69.2
2022-12-01T14:14:59.684Z,69.1
2022-12-01T14:16:16.543Z,68.9
2022-12-01T14:17:33.859Z,68.8
2022-12-01T14:18:51.317Z,68.5
2022-12-01T14:20:11.389Z,68.3
2022-12-01T14:21:32.592Z,67.9
2022-12-01T14:22:46.001Z,67.6
2022-12-01T14:24:03.305Z,67.5
2022-12-01T14:25:20.325Z,67.4
2022-12-01T14:26:40.757Z,67.2
2022-12-01T14:27:54.384Z,66.8
2022-12-01T14:29:11.345Z,66.8
2022-12-01T14:30:28.488Z,66.4
2022-12-01T14:31:45.363Z,66.4
2022-12-01T14:33:02.384Z,66.9
2022-12-01T14:34:19.632Z,67.1
2022-12-01T14:35:36.364Z,67.2
2022-12-01T14:36:53.332Z,66.8
2022-12-01T14:38:10.539Z,66.7
2022-12-01T14:39:27.346Z,66.8
2022-12-01T14:40:44.392Z,67.2
2022-12-01T14:42:02.774Z,67.5
2022-12-01T14:43:20.473Z,67.7
2022-12-01T14:44:37.658Z,67.9
2022-12-01T14:45:55.292Z,68.1
2022-12-01T14:47:13.925Z,68
2022-12-01T14:48:31.517Z,68.1
2022-12-01T14:49:49.029Z,67.8
2022-12-01T14:51:07.838Z,67.5
2022-12-01T14:52:24.648Z,67.3
2022-12-01T14:53:41.447Z,67.2
2022-12-01T14:54:58.835Z,66.6
2022-12-01T14:56:15.358Z,66.6
2022-12-01T14:57:32.405Z,66.6
2022-12-01T14:58:49.847Z,66.7
2022-12-01T15:00:06.663Z,66.9
2022-12-01T15:01:23.396Z,66.9
2022-12-01T15:02:40.670Z,67.1
2022-12-01T15:03:57.550Z,67.2
2022-12-01T15:05:14.736Z,67.3
2022-12-01T15:06:31.403Z,67.4
2022-12-01T15:07:48.512Z,67.3
2022-12-01T15:11:10.784Z,67.3
2022-12-01T15:12:24.831Z,67.2
2022-12-01T15:13:42.387Z,66.9
2022-12-01T15:14:59.538Z,66.8
2022-12-01T15:16:16.755Z,66.8
2022-12-01T15:17:33.658Z,67.1
2022-12-01T15:18:50.399Z,67.3
2022-12-01T15:20:07.784Z,67.1
2022-12-01T15:21:24.437Z,66.8
2022-12-01T15:22:41.425Z,66.4
2022-12-01T15:23:58.469Z,66
2022-12-01T15:25:15.768Z,65.7
2022-12-01T15:26:32.398Z,65.2
2022-12-01T15:27:49.397Z,65.1
2022-12-01T15:29:06.408Z,65
2022-12-01T15:30:23.605Z,65.2
2022-12-01T15:31:40.514Z,65.5
2022-12-01T15:32:57.710Z,65.7
2022-12-01T15:34:14.408Z,66.3
2022-12-01T15:35:31.503Z,66.6
2022-12-01T15:36:48.490Z,66.8
2022-12-01T15:38:05.474Z,67.1
2022-12-01T15:39:22.405Z,66.8
2022-12-01T15:41:20.904Z,66.8
2022-12-01T15:41:56.430Z,66.7
2022-12-01T15:43:13.431Z,66.3
2022-12-01T15:44:30.423Z,66
2022-12-01T15:45:47.629Z,65.5
2022-12-01T15:47:04.539Z,65.3
2022-12-01T15:48:21.452Z,65.1
2022-12-01T15:49:38.443Z,65.3
2022-12-01T15:50:55.457Z,65.6
2022-12-01T15:52:12.561Z,65.6
2022-12-01T15:53:29.460Z,65.7
2022-12-01T15:54:46.430Z,65.3
2022-12-01T15:56:03.559Z,65.3
2022-12-01T15:57:20.446Z,65.7
2022-12-01T15:58:37.784Z,66
2022-12-01T15:59:54.487Z,66.3
2022-12-01T16:01:11.545Z,65.9
2022-12-01T16:02:28.530Z,65.9
2022-12-01T16:03:45.762Z,65.7
2022-12-01T16:05:02.440Z,65.7
2022-12-01T16:06:19.441Z,65.7
2022-12-01T16:08:11.253Z,65.4
2022-12-01T16:08:53.596Z,65.2
2022-12-01T16:10:10.454Z,65
2022-12-01T16:11:28.289Z,64.8
2022-12-01T16:12:45.468Z,65.3
2022-12-01T16:14:04.104Z,65.6
2022-12-01T16:15:20.518Z,66.1
2022-12-01T16:16:37.550Z,66.5
2022-12-01T16:17:54.563Z,66.5
2022-12-01T16:19:11.447Z,66.5
2022-12-01T16:20:28.496Z,66.7
2022-12-01T16:21:45.459Z,66.6
2022-12-01T16:23:02.681Z,66.5
2022-12-01T16:24:19.504Z,66.3
2022-12-01T16:25:36.520Z,66
2022-12-01T16:26:53.507Z,65.7
2022-12-01T16:28:10.557Z,65.4
2022-12-01T16:29:27.466Z,65.1
2022-12-01T16:30:44.572Z,65
2022-12-01T16:33:18.596Z,65.3
2022-12-01T16:34:46.132Z,65.4
2022-12-01T16:35:52.556Z,65.8
2022-12-01T16:37:09.480Z,65.9
2022-12-01T16:38:26.562Z,66.1
2022-12-01T16:39:43.528Z,65.9
2022-12-01T16:41:00.663Z,65.4
2022-12-01T16:42:17.538Z,65.4
2022-12-01T16:43:34.548Z,65.5
2022-12-01T16:44:51.860Z,65.6
2022-12-01T16:46:08.708Z,65.7
2022-12-01T16:47:25.503Z,66
2022-12-01T16:48:43.144Z,66.4
2022-12-01T16:50:00.637Z,66.5
2022-12-01T16:51:29.264Z,66.6
2022-12-01T16:52:49.793Z,66.7
2022-12-01T16:53:51.668Z,66.6
2022-12-01T16:55:08.715Z,66.6
2022-12-01T16:56:25.542Z,66.3
2022-12-01T16:57:42.562Z,66.3
2022-12-01T16:58:59.562Z,66.5
2022-12-01T17:00:16.671Z,66.9
2022-12-01T17:01:33.639Z,67.7
2022-12-01T17:02:50.735Z,68.4
2022-12-01T17:04:08.005Z,68.8
2022-12-01T17:05:24.693Z,69
2022-12-01T17:06:41.542Z,68.8
2022-12-01T17:07:58.610Z,68.6
2022-12-01T17:09:15.621Z,68.3
2022-12-01T17:10:32.536Z,68
2022-12-01T17:11:49.756Z,67.9
2022-12-01T17:13:06.560Z,67.6
2022-12-01T17:14:23.607Z,67.3
2022-12-01T17:15:40.622Z,67.1
2022-12-01T17:17:00.615Z,66.8
2022-12-01T17:18:17.574Z,66.7
2022-12-01T17:19:34.570Z,66.6